Time;durP1;ratioP1;P1;durP2;ratioP2;P2;SDS_P1;SDS_P2;PMS_P1;PMS_P2;Temp;Humidity;BMP_temperature;BMP_pressure;BME280_temperature;BME280_humidity;BME280_pressure;Samples;Min_cycle;Max_cycle;Signal;HPM_P1;HPM_P2
2022/05/10 00:01:20;;;;;;;11.05;7.95;;;13.70;99.90;;;;;;5071353;28;20123;-69
2022/05/10 00:03:46;;;;;;;20.95;8.15;;;13.70;99.90;;;;;;5070870;28;20037;-69
2022/05/10 00:06:12;;;;;;;14.50;8.02;;;13.70;99.90;;;;;;5071093;28;20102;-69
2022/05/10 00:08:39;;;;;;;16.33;8.48;;;13.60;99.90;;;;;;5071539;28;20494;-70
2022/05/10 00:11:05;;;;;;;19.92;7.55;;;13.60;99.90;;;;;;5071222;28;20444;-69
2022/05/10 00:13:31;;;;;;;17.20;9.45;;;13.70;99.90;;;;;;5071762;28;20112;-69
2022/05/10 00:15:56;;;;;;;14.38;7.25;;;13.60;99.90;;;;;;5071831;28;20068;-69
2022/05/10 00:18:27;;;;;;;15.80;8.45;;;13.70;99.90;;;;;;5071770;28;20048;-70
2022/05/10 00:20:52;;;;;;;19.33;9.02;;;13.70;99.90;;;;;;5071277;28;20121;-69
2022/05/10 00:23:18;;;;;;;17.05;8.23;;;13.60;99.90;;;;;;5071529;28;20087;-70
2022/05/10 00:25:44;;;;;;;17.73;8.15;;;13.60;99.90;;;;;;5071840;28;20454;-69
2022/05/10 00:28:09;;;;;;;18.33;9.00;;;13.60;99.90;;;;;;5071531;28;20477;-69
2022/05/10 00:30:35;;;;;;;18.45;8.52;;;13.60;99.90;;;;;;5071306;28;20043;-69
2022/05/10 00:33:01;;;;;;;15.25;8.68;;;13.50;99.90;;;;;;5071636;28;20116;-69
2022/05/10 00:35:29;;;;;;;17.50;8.75;;;13.50;99.90;;;;;;5071539;28;20036;-69
2022/05/10 00:37:58;;;;;;;18.00;9.05;;;13.50;99.90;;;;;;5071432;28;20080;-69
2022/05/10 00:40:30;;;;;;;14.68;7.75;;;13.40;99.90;;;;;;5071486;28;20123;-69
2022/05/10 00:43:16;;;;;;;18.02;8.80;;;13.40;99.90;;;;;;5071776;28;20044;-69
2022/05/10 00:45:47;;;;;;;14.00;7.82;;;13.40;99.90;;;;;;5070943;28;20125;-69
2022/05/10 00:48:36;;;;;;;15.27;8.52;;;13.30;99.90;;;;;;5071276;28;20037;-69
2022/05/10 00:51:34;;;;;;;17.27;8.20;;;13.20;99.90;;;;;;5071333;28;20041;-69
2022/05/10 00:54:36;;;;;;;15.20;7.90;;;13.30;99.90;;;;;;5030245;28;20477;-69
2022/05/10 00:57:16;;;;;;;17.30;8.10;;;13.30;99.90;;;;;;5072723;28;20059;-69
2022/05/10 00:59:47;;;;;;;13.73;7.70;;;13.30;99.90;;;;;;5075459;28;20036;-70
2022/05/10 01:02:30;;;;;;;11.90;7.28;;;13.20;99.90;;;;;;5075090;28;20048;-69
2022/05/10 01:05:01;;;;;;;19.33;7.65;;;13.30;99.90;;;;;;5075274;28;20044;-69
2022/05/10 01:07:34;;;;;;;18.40;6.80;;;13.20;99.90;;;;;;5075281;28;20060;-68
2022/05/10 01:10:07;;;;;;;16.88;9.05;;;13.20;99.90;;;;;;5075120;28;20036;-69
2022/05/10 01:12:44;;;;;;;14.77;7.00;;;13.30;99.90;;;;;;5074065;28;20036;-69
2022/05/10 01:15:14;;;;;;;15.70;7.40;;;13.30;99.90;;;;;;5075031;28;20037;-69
2022/05/10 01:17:40;;;;;;;15.20;7.00;;;13.30;99.90;;;;;;5074790;28;20040;-69
2022/05/10 01:20:07;;;;;;;11.68;7.13;;;13.30;99.90;;;;;;5073259;28;20476;-69
2022/05/10 01:22:44;;;;;;;12.82;6.40;;;13.30;99.90;;;;;;5075050;28;20036;-69
2022/05/10 01:25:37;;;;;;;11.98;6.00;;;13.30;99.90;;;;;;5075028;28;20401;-69
2022/05/10 01:28:02;;;;;;;14.32;7.03;;;13.40;99.90;;;;;;5074629;28;20092;-69
2022/05/10 01:30:31;;;;;;;15.48;6.70;;;13.40;99.90;;;;;;5074689;28;20044;-69
2022/05/10 01:36:31;;;;;;;15.38;7.32;;;13.50;99.90;;;;;;5074721;28;20040;-69
2022/05/10 01:39:06;;;;;;;15.25;7.13;;;13.60;99.90;;;;;;5051634;28;20056;-69
2022/05/10 01:41:41;;;;;;;17.80;9.07;;;13.50;99.90;;;;;;5074374;28;20040;-69
2022/05/10 01:44:06;;;;;;;9.25;6.70;;;13.60;99.90;;;;;;5074563;28;20383;-69
2022/05/10 01:46:33;;;;;;;12.18;6.13;;;13.50;99.90;;;;;;5074344;28;20051;-69
2022/05/10 01:49:18;;;;;;;13.27;6.72;;;13.50;99.90;;;;;;5074187;28;20115;-69
2022/05/10 01:51:56;;;;;;;16.20;6.82;;;13.50;99.90;;;;;;5074209;28;20056;-69
2022/05/10 01:54:56;;;;;;;11.93;6.57;;;13.50;99.90;;;;;;5074386;28;20136;-69
2022/05/10 01:57:22;;;;;;;13.27;7.57;;;13.50;99.90;;;;;;5072776;28;20040;-69
2022/05/10 01:59:57;;;;;;;13.57;6.95;;;13.50;99.90;;;;;;5074195;28;20052;-69
2022/05/10 02:02:25;;;;;;;12.35;6.72;;;13.50;99.90;;;;;;5074221;28;20054;-70
2022/05/10 02:04:54;;;;;;;11.63;6.20;;;13.50;99.90;;;;;;5074201;28;20079;-69
2022/05/10 02:07:22;;;;;;;10.90;6.68;;;13.50;99.90;;;;;;5073043;28;20149;-69
2022/05/10 02:10:14;;;;;;;14.02;6.97;;;13.50;99.90;;;;;;5072749;28;20047;-69
2022/05/10 02:12:44;;;;;;;14.10;6.78;;;13.50;99.90;;;;;;5059692;28;20055;-69
2022/05/10 02:15:17;;;;;;;12.88;7.28;;;13.50;99.90;;;;;;5072753;28;20037;-69
2022/05/10 02:18:10;;;;;;;8.07;6.35;;;13.50;99.90;;;;;;5074008;28;20091;-69
2022/05/10 02:20:45;;;;;;;10.95;6.20;;;13.40;99.90;;;;;;5072345;28;20036;-69
2022/05/10 02:23:22;;;;;;;11.63;6.72;;;13.40;99.90;;;;;;5072568;28;20055;-69
2022/05/10 02:26:01;;;;;;;14.27;6.93;;;13.40;99.90;;;;;;5073904;28;20043;-69
2022/05/10 02:28:55;;;;;;;13.63;6.95;;;13.40;99.90;;;;;;5073465;28;20041;-69
2022/05/10 02:31:31;;;;;;;9.82;6.45;;;13.40;99.90;;;;;;5073525;28;20043;-69
2022/05/10 02:33:58;;;;;;;11.18;6.70;;;13.30;99.90;;;;;;5073727;28;20093;-69
2022/05/10 02:36:24;;;;;;;11.60;7.22;;;13.40;99.90;;;;;;5073462;28;20036;-69
2022/05/10 02:38:49;;;;;;;14.00;6.78;;;13.40;99.90;;;;;;5072127;28;20459;-69
2022/05/10 02:41:19;;;;;;;7.78;5.65;;;13.40;99.90;;;;;;5073358;28;20086;-69
2022/05/10 02:43:59;;;;;;;14.00;6.10;;;13.40;99.90;;;;;;5073559;28;20045;-69
2022/05/10 02:46:25;;;;;;;12.25;5.63;;;13.40;99.90;;;;;;5072162;28;20501;-69
2022/05/10 02:48:52;;;;;;;13.98;6.32;;;13.40;99.90;;;;;;5055251;28;20037;-69
2022/05/10 02:51:18;;;;;;;12.75;5.38;;;13.50;99.90;;;;;;5072821;28;20033;-70
2022/05/10 02:53:44;;;;;;;14.93;6.85;;;13.40;99.90;;;;;;5073405;28;20516;-70
2022/05/10 02:56:13;;;;;;;11.25;7.18;;;13.40;99.90;;;;;;5073265;28;20042;-69
2022/05/10 02:58:39;;;;;;;10.80;6.45;;;13.50;99.90;;;;;;5073281;28;20131;-69
2022/05/10 03:01:24;;;;;;;13.15;6.78;;;13.40;99.90;;;;;;5072790;28;20083;-69
2022/05/10 03:03:51;;;;;;;15.07;6.78;;;13.40;99.90;;;;;;5073077;28;20048;-69
2022/05/10 03:06:21;;;;;;;11.68;6.95;;;13.40;99.90;;;;;;5073282;28;20047;-69
2022/05/10 03:08:47;;;;;;;12.45;6.70;;;13.40;99.90;;;;;;5073161;28;20037;-70
2022/05/10 03:11:14;;;;;;;15.10;6.85;;;13.50;99.90;;;;;;5072708;28;20036;-69
2022/05/10 03:13:40;;;;;;;12.52;6.97;;;13.50;99.90;;;;;;5073040;28;20056;-69
2022/05/10 03:16:06;;;;;;;10.75;6.70;;;13.50;99.90;;;;;;5072907;28;20438;-69
2022/05/10 03:18:32;;;;;;;14.98;7.43;;;13.50;99.90;;;;;;5072574;28;20090;-69
2022/05/10 03:20:57;;;;;;;13.25;7.45;;;13.50;99.90;;;;;;5071193;28;20406;-69
2022/05/10 03:23:23;;;;;;;11.50;7.07;;;13.50;99.90;;;;;;5072698;28;20048;-69
2022/05/10 03:25:49;;;;;;;9.93;7.32;;;13.50;99.90;;;;;;5072641;28;20051;-69
2022/05/10 03:28:14;;;;;;;14.60;7.65;;;13.50;99.90;;;;;;5072333;28;20040;-69
2022/05/10 03:30:41;;;;;;;16.20;7.70;;;13.60;99.90;;;;;;5072072;28;20040;-69
2022/05/10 03:33:07;;;;;;;16.90;7.35;;;13.60;99.90;;;;;;5072303;28;20105;-69
2022/05/10 03:35:32;;;;;;;13.30;7.80;;;13.60;99.90;;;;;;5072244;28;20501;-69
2022/05/10 03:37:58;;;;;;;13.70;7.25;;;13.60;99.90;;;;;;5070940;28;20124;-69
2022/05/10 03:40:24;;;;;;;12.60;8.05;;;13.60;99.90;;;;;;5072059;28;20075;-69
2022/05/10 03:42:51;;;;;;;13.73;8.25;;;13.60;99.90;;;;;;5070949;28;20044;-68
2022/05/10 03:45:19;;;;;;;18.05;7.88;;;13.60;99.90;;;;;;5072127;28;20043;-69
2022/05/10 03:47:46;;;;;;;15.93;8.27;;;13.60;99.90;;;;;;5070895;28;20040;-69
2022/05/10 03:50:12;;;;;;;13.68;8.00;;;13.60;99.90;;;;;;5071841;28;20029;-69
2022/05/10 03:52:40;;;;;;;10.38;7.57;;;13.60;99.90;;;;;;5072195;28;20090;-69
2022/05/10 03:55:08;;;;;;;13.43;7.63;;;13.50;99.90;;;;;;5072129;28;20076;-69
2022/05/10 03:57:33;;;;;;;11.60;7.55;;;13.50;99.90;;;;;;5071715;28;20072;-69
2022/05/10 03:59:59;;;;;;;13.07;8.10;;;13.60;99.90;;;;;;5070311;28;20518;-69
2022/05/10 04:02:24;;;;;;;14.05;8.38;;;13.50;99.90;;;;;;5072047;28;20048;-69
2022/05/10 04:04:50;;;;;;;14.35;7.63;;;13.50;99.90;;;;;;5070818;28;20124;-69
2022/05/10 04:07:16;;;;;;;11.82;7.97;;;13.50;99.90;;;;;;5071941;28;20120;-69
2022/05/10 04:09:41;;;;;;;12.63;7.80;;;13.50;99.90;;;;;;5071765;28;20040;-69
2022/05/10 04:12:07;;;;;;;15.90;8.52;;;13.60;99.90;;;;;;5071608;28;20032;-69
2022/05/10 04:14:33;;;;;;;15.55;8.05;;;13.60;99.90;;;;;;5070732;28;20041;-69
2022/05/10 04:16:59;;;;;;;16.05;8.68;;;13.60;99.90;;;;;;5071593;28;20490;-69
2022/05/10 04:19:24;;;;;;;15.80;8.57;;;13.50;99.90;;;;;;5071985;28;20536;-68
2022/05/10 04:21:50;;;;;;;17.95;8.73;;;13.50;99.90;;;;;;5071534;28;20089;-68
2022/05/10 04:24:17;;;;;;;18.55;8.35;;;13.50;99.90;;;;;;5071753;28;20044;-69
2022/05/10 04:26:43;;;;;;;12.93;8.10;;;13.50;99.90;;;;;;5071594;28;20249;-69
2022/05/10 04:29:09;;;;;;;17.80;8.02;;;13.50;99.90;;;;;;5071289;28;20036;-69
2022/05/10 04:31:34;;;;;;;14.77;8.55;;;13.50;99.90;;;;;;5069507;28;20043;-69
2022/05/10 04:34:00;;;;;;;16.80;8.65;;;13.60;99.90;;;;;;5071503;28;20036;-69
2022/05/10 04:36:26;;;;;;;16.10;9.02;;;13.60;99.90;;;;;;5053503;28;20040;-69
2022/05/10 04:38:52;;;;;;;12.35;8.45;;;13.60;99.90;;;;;;5070594;28;20040;-69
2022/05/10 04:41:28;;;;;;;15.02;8.38;;;13.60;99.90;;;;;;5071259;28;20036;-69
2022/05/10 04:43:59;;;;;;;15.18;8.27;;;13.60;99.90;;;;;;5071357;28;20036;-69
2022/05/10 04:46:26;;;;;;;15.10;8.95;;;13.60;99.90;;;;;;5071639;28;20094;-69
2022/05/10 04:48:52;;;;;;;15.45;7.97;;;13.60;99.90;;;;;;5071549;28;20116;-69
2022/05/10 04:51:18;;;;;;;13.30;8.48;;;13.70;99.90;;;;;;5071220;28;20112;-69
2022/05/10 04:53:44;;;;;;;16.92;8.93;;;13.70;99.90;;;;;;5071449;28;20068;-69
2022/05/10 04:56:09;;;;;;;17.70;10.02;;;13.80;99.90;;;;;;5070131;28;20044;-68
2022/05/10 04:58:35;;;;;;;13.50;8.77;;;13.80;99.90;;;;;;5071145;28;20033;-69
2022/05/10 05:01:09;;;;;;;19.63;9.90;;;13.90;99.90;;;;;;5071172;28;20033;-69
2022/05/10 05:03:35;;;;;;;18.92;10.23;;;13.90;99.90;;;;;;5070027;28;20124;-68
2022/05/10 05:06:02;;;;;;;17.70;10.20;;;13.90;99.90;;;;;;5071388;28;20036;-69
2022/05/10 05:08:28;;;;;;;15.60;9.93;;;13.90;99.90;;;;;;5071167;28;20041;-68
2022/05/10 05:10:56;;;;;;;14.98;9.82;;;14.00;99.90;;;;;;5070886;28;20055;-68
2022/05/10 05:13:23;;;;;;;16.38;9.52;;;14.00;99.90;;;;;;5070215;28;20044;-69
2022/05/10 05:15:49;;;;;;;14.82;9.32;;;14.10;99.90;;;;;;5069952;28;20036;-69
2022/05/10 05:18:14;;;;;;;14.73;9.55;;;14.10;99.90;;;;;;5071143;28;20102;-69
2022/05/10 05:20:41;;;;;;;16.98;10.10;;;14.20;99.90;;;;;;5070892;28;20045;-69
2022/05/10 05:23:08;;;;;;;14.45;9.18;;;14.20;99.90;;;;;;5071136;28;20033;-70
2022/05/10 05:25:36;;;;;;;29.95;11.05;;;14.20;99.90;;;;;;5070977;28;20045;-69
2022/05/10 05:28:02;;;;;;;23.60;10.10;;;14.30;99.90;;;;;;5071099;28;20044;-69
2022/05/10 05:30:28;;;;;;;18.02;10.73;;;14.30;99.90;;;;;;5070945;28;20044;-69
2022/05/10 05:32:53;;;;;;;19.27;11.00;;;14.30;99.90;;;;;;5071115;28;20037;-69
2022/05/10 05:35:19;;;;;;;15.00;9.85;;;14.40;99.90;;;;;;5071058;28;20379;-69
2022/05/10 05:37:44;;;;;;;18.75;11.15;;;14.50;99.90;;;;;;5070895;28;20036;-69
2022/05/10 05:40:13;;;;;;;18.23;10.95;;;14.50;99.90;;;;;;5070610;28;20112;-68
2022/05/10 05:42:39;;;;;;;16.15;10.02;;;14.50;99.90;;;;;;5071004;28;20048;-69
2022/05/10 05:45:08;;;;;;;19.70;11.07;;;14.60;99.90;;;;;;5073730;28;20032;-69
2022/05/10 05:47:33;;;;;;;19.65;11.40;;;14.60;99.90;;;;;;5074226;28;20506;-69
2022/05/10 05:49:59;;;;;;;20.10;10.85;;;14.70;99.90;;;;;;5074007;28;20047;-69
2022/05/10 05:52:25;;;;;;;16.27;10.95;;;14.70;99.90;;;;;;5074267;28;20078;-69
2022/05/10 05:54:51;;;;;;;18.77;11.57;;;14.80;99.90;;;;;;5074122;28;20037;-69
2022/05/10 05:57:18;;;;;;;15.45;11.15;;;14.80;99.90;;;;;;5074185;28;20111;-69
2022/05/10 05:59:43;;;;;;;18.60;11.60;;;14.90;99.90;;;;;;5074256;28;20055;-69
2022/05/10 06:02:16;;;;;;;19.08;11.18;;;15.00;99.90;;;;;;5072638;28;20052;-69
2022/05/10 06:04:42;;;;;;;17.50;11.15;;;15.00;99.90;;;;;;5072812;28;20199;-69
2022/05/10 06:07:09;;;;;;;19.65;10.52;;;15.10;99.90;;;;;;5073789;28;20141;-69
2022/05/10 06:09:36;;;;;;;15.80;10.32;;;15.20;99.90;;;;;;5073868;28;20494;-69
2022/05/10 06:12:02;;;;;;;18.40;10.60;;;15.20;99.90;;;;;;5073650;28;20119;-67
2022/05/10 06:14:29;;;;;;;17.13;9.93;;;15.30;99.90;;;;;;5073857;28;20036;-69
2022/05/10 06:16:56;;;;;;;22.23;10.63;;;15.40;99.90;;;;;;5073893;28;20048;-69
2022/05/10 06:19:22;;;;;;;16.48;10.65;;;15.40;99.90;;;;;;5072464;28;20040;-69
2022/05/10 06:21:48;;;;;;;16.23;9.95;;;15.60;99.90;;;;;;5073326;28;20082;-68
2022/05/10 06:24:13;;;;;;;19.23;10.40;;;15.60;99.90;;;;;;5073900;28;20417;-69
2022/05/10 06:26:39;;;;;;;18.88;10.25;;;15.70;99.90;;;;;;5072527;28;20044;-69
2022/05/10 06:29:04;;;;;;;19.33;10.85;;;15.80;99.70;;;;;;5073508;28;20058;-69
2022/05/10 06:31:30;;;;;;;13.15;9.75;;;16.00;99.50;;;;;;5073500;28;20119;-69
2022/05/10 06:33:56;;;;;;;21.02;10.68;;;16.20;99.00;;;;;;5073596;28;20032;-70
2022/05/10 06:36:21;;;;;;;17.20;9.77;;;16.50;98.50;;;;;;5073442;28;20115;-69
2022/05/10 06:38:47;;;;;;;15.70;10.00;;;16.70;97.80;;;;;;5073433;28;20048;-69
2022/05/10 06:41:12;;;;;;;16.38;10.02;;;17.10;96.20;;;;;;5071624;28;20105;-69
2022/05/10 06:43:38;;;;;;;21.13;10.40;;;17.40;95.10;;;;;;5073514;28;20040;-69
2022/05/10 06:46:12;;;;;;;13.50;9.63;;;17.80;93.00;;;;;;5073483;28;20083;-69
2022/05/10 06:48:39;;;;;;;13.18;8.55;;;18.30;91.20;;;;;;5061648;28;20050;-69
2022/05/10 06:51:09;;;;;;;17.92;9.68;;;18.40;88.60;;;;;;5063418;28;20115;-69
2022/05/10 06:53:36;;;;;;;14.27;8.68;;;18.70;86.70;;;;;;5063042;28;20036;-69
2022/05/10 06:56:02;;;;;;;13.70;8.32;;;18.90;84.60;;;;;;5061288;28;20033;-69
2022/05/10 06:58:27;;;;;;;17.65;8.32;;;19.10;81.70;;;;;;5063181;28;20123;-69
2022/05/10 07:00:53;;;;;;;12.77;7.05;;;19.30;80.20;;;;;;5055420;28;20556;-69
2022/05/10 07:03:31;;;;;;;10.25;6.63;;;19.40;78.50;;;;;;5052956;28;20037;-69
2022/05/10 07:05:58;;;;;;;11.77;6.55;;;19.40;77.10;;;;;;5053032;28;20487;-69
2022/05/10 07:08:24;;;;;;;12.20;6.13;;;19.50;78.70;;;;;;5053035;28;20037;-69
2022/05/10 07:10:50;;;;;;;10.05;6.40;;;19.60;76.90;;;;;;5052693;28;20083;-69
2022/05/10 07:13:21;;;;;;;8.20;5.25;;;19.70;76.90;;;;;;5052792;28;20055;-69
2022/05/10 07:15:47;;;;;;;9.88;5.28;;;19.90;74.10;;;;;;5052945;28;20372;-69
2022/05/10 07:18:14;;;;;;;11.13;5.75;;;19.90;71.50;;;;;;5067414;28;20037;-70
2022/05/10 07:20:41;;;;;;;11.80;5.30;;;20.20;73.40;;;;;;5054631;28;20086;-69
2022/05/10 07:23:07;;;;;;;12.48;5.47;;;20.60;71.60;;;;;;5052426;28;20060;-70
2022/05/10 07:25:33;;;;;;;10.55;5.43;;;20.80;70.70;;;;;;5052683;28;20044;-69
2022/05/10 07:27:59;;;;;;;8.63;4.80;;;21.10;68.10;;;;;;5052494;28;20163;-69
2022/05/10 07:30:26;;;;;;;11.18;5.75;;;21.10;67.90;;;;;;5052180;28;20033;-69
2022/05/10 07:32:53;;;;;;;13.32;6.18;;;21.00;67.40;;;;;;5062426;28;20041;-69
2022/05/10 07:38:06;;;;;;;15.30;7.00;;;20.90;67.90;;;;;;5071001;28;20123;-69
2022/05/10 07:40:32;;;;;;;10.88;5.95;;;21.00;69.00;;;;;;5072127;28;20042;-69
2022/05/10 07:42:58;;;;;;;13.00;5.80;;;20.90;66.10;;;;;;5072270;28;20058;-69
2022/05/10 07:45:23;;;;;;;9.60;5.35;;;20.80;66.80;;;;;;5064601;28;20036;-69
2022/05/10 07:47:49;;;;;;;10.10;5.90;;;20.90;67.50;;;;;;5063056;28;20040;-69
2022/05/10 07:50:14;;;;;;;13.70;4.90;;;21.10;65.30;;;;;;5070801;28;20406;-69
2022/05/10 07:52:41;;;;;;;12.25;5.13;;;21.30;65.60;;;;;;5072230;28;20044;-69
2022/05/10 07:55:08;;;;;;;8.43;4.40;;;21.70;63.90;;;;;;5070701;28;20040;-70
2022/05/10 07:57:34;;;;;;;9.75;4.60;;;21.80;64.40;;;;;;5071618;28;20082;-69
2022/05/10 07:59:59;;;;;;;10.73;3.95;;;21.80;65.00;;;;;;5068569;28;20464;-69
2022/05/10 08:02:25;;;;;;;10.77;4.78;;;21.90;63.80;;;;;;5057805;28;20033;-69
2022/05/10 08:04:50;;;;;;;9.20;4.35;;;22.10;62.90;;;;;;5051908;28;20082;-69
2022/05/10 08:07:16;;;;;;;8.32;4.15;;;22.10;62.00;;;;;;5051320;28;20086;-70
2022/05/10 08:09:42;;;;;;;8.82;4.30;;;22.20;60.00;;;;;;5050460;28;20041;-69
2022/05/10 08:12:08;;;;;;;8.55;4.57;;;22.10;61.10;;;;;;5051570;28;20093;-69
2022/05/10 08:14:33;;;;;;;7.35;4.22;;;22.00;61.00;;;;;;5052168;28;20158;-69
2022/05/10 08:16:59;;;;;;;6.75;3.25;;;22.10;61.00;;;;;;5050690;28;20120;-69
2022/05/10 08:19:25;;;;;;;8.32;3.55;;;22.00;62.80;;;;;;5052026;28;20145;-69
2022/05/10 08:21:55;;;;;;;7.45;3.70;;;22.00;62.30;;;;;;5033436;28;20172;-69
2022/05/10 08:24:21;;;;;;;8.60;3.95;;;22.10;60.50;;;;;;5051795;28;20504;-69
2022/05/10 08:26:47;;;;;;;8.27;4.22;;;22.20;59.90;;;;;;5051771;28;20033;-70
2022/05/10 08:29:12;;;;;;;7.65;4.63;;;22.10;60.30;;;;;;5050495;28;20051;-69
2022/05/10 08:31:40;;;;;;;6.80;3.63;;;22.00;61.60;;;;;;5051591;28;20039;-70
2022/05/10 08:34:06;;;;;;;10.60;4.25;;;22.00;62.00;;;;;;5033874;28;20102;-68
2022/05/10 08:36:32;;;;;;;13.50;4.25;;;21.80;62.20;;;;;;5051740;28;20475;-69
2022/05/10 08:38:57;;;;;;;8.45;4.90;;;21.80;60.80;;;;;;5051646;28;20081;-69
2022/05/10 08:41:29;;;;;;;9.05;4.20;;;21.90;61.30;;;;;;5058049;28;20119;-69
2022/05/10 08:44:09;;;;;;;11.23;4.07;;;22.00;61.10;;;;;;5067939;28;20036;-69
2022/05/10 08:46:42;;;;;;;6.32;3.65;;;21.90;60.90;;;;;;5067763;28;20040;-69
2022/05/10 08:49:31;;;;;;;9.23;4.10;;;21.80;60.50;;;;;;5051450;28;20045;-69
2022/05/10 08:51:57;;;;;;;10.75;4.13;;;21.90;59.30;;;;;;5051122;28;20167;-69
2022/05/10 08:54:23;;;;;;;10.07;4.18;;;21.80;59.60;;;;;;5051600;28;20461;-69
2022/05/10 08:56:57;;;;;;;12.25;5.95;;;21.90;58.70;;;;;;5051337;28;20415;-69
2022/05/10 08:59:47;;;;;;;7.07;4.35;;;21.80;61.10;;;;;;5051475;28;20048;-69
2022/05/10 09:02:24;;;;;;;9.25;3.75;;;21.80;61.50;;;;;;5050885;28;20064;-69
2022/05/10 09:04:59;;;;;;;11.77;4.00;;;21.90;60.80;;;;;;5053439;28;20090;-69
2022/05/10 09:07:38;;;;;;;7.00;3.63;;;22.00;60.40;;;;;;5050332;28;20047;-69
2022/05/10 09:10:12;;;;;;;6.43;4.15;;;22.00;58.70;;;;;;5051042;28;20045;-69
2022/05/10 09:13:03;;;;;;;8.88;4.45;;;22.10;57.50;;;;;;5051265;28;20045;-70
2022/05/10 09:15:34;;;;;;;7.18;3.63;;;22.00;59.70;;;;;;5058890;28;20118;-69
2022/05/10 09:18:14;;;;;;;12.38;4.22;;;22.10;59.10;;;;;;5064561;28;20024;-69
2022/05/10 09:20:49;;;;;;;7.63;4.47;;;22.00;59.90;;;;;;5064289;28;20040;-69
2022/05/10 09:23:29;;;;;;;11.15;3.92;;;21.90;60.50;;;;;;5062983;28;20493;-69
2022/05/10 09:25:56;;;;;;;7.93;3.65;;;21.90;60.10;;;;;;5053977;28;20549;-69
2022/05/10 09:29:00;;;;;;;7.07;3.72;;;21.80;60.60;;;;;;5063566;28;20047;-69
2022/05/10 09:37:20;;;;;;;12.18;5.28;;;21.50;61.10;;;;;;5054856;28;20041;-69
2022/05/10 09:39:58;;;;;;;9.20;4.60;;;21.60;62.60;;;;;;5056127;28;20037;-69
2022/05/10 09:42:32;;;;;;;7.78;4.53;;;21.90;60.30;;;;;;5063961;28;20044;-69
2022/05/10 09:45:04;;;;;;;7.65;4.35;;;22.00;61.60;;;;;;5063065;28;20036;-69
2022/05/10 09:47:31;;;;;;;9.45;4.63;;;22.00;61.30;;;;;;5062275;28;20123;-69
2022/05/10 09:50:11;;;;;;;7.05;5.10;;;21.90;62.10;;;;;;5061165;28;20068;-69
2022/05/10 09:52:37;;;;;;;9.00;5.13;;;21.90;61.30;;;;;;5062946;28;20516;-69
2022/05/10 09:55:07;;;;;;;8.98;4.95;;;21.90;60.90;;;;;;5062991;28;20085;-69
2022/05/10 09:57:37;;;;;;;11.90;6.13;;;22.10;61.30;;;;;;5059333;28;20718;-69
2022/05/10 10:00:13;;;;;;;13.93;4.95;;;22.30;60.90;;;;;;5059659;28;20037;-69
2022/05/10 10:02:40;;;;;;;8.38;4.53;;;22.50;62.60;;;;;;5060706;28;20123;-69
2022/05/10 10:05:29;;;;;;;9.13;4.75;;;22.70;60.70;;;;;;5064316;28;20466;-69
2022/05/10 10:07:56;;;;;;;12.98;5.40;;;22.90;60.90;;;;;;5059503;28;20043;-69
2022/05/10 10:10:42;;;;;;;16.40;5.43;;;22.70;60.50;;;;;;5059064;28;20036;-69
2022/05/10 10:13:28;;;;;;;16.55;5.60;;;22.60;59.90;;;;;;5056579;28;20044;-69
2022/05/10 10:15:54;;;;;;;11.45;5.57;;;22.60;59.30;;;;;;5064805;28;20406;-69
2022/05/10 10:18:48;;;;;;;11.57;5.63;;;22.60;60.10;;;;;;5064231;28;20124;-69
2022/05/10 10:21:19;;;;;;;5.63;4.32;;;22.30;60.70;;;;;;5061682;28;20045;-69
2022/05/10 10:23:53;;;;;;;11.90;5.32;;;22.10;62.40;;;;;;5045494;28;20105;-69
2022/05/10 10:26:31;;;;;;;6.55;4.95;;;22.10;61.90;;;;;;5063223;28;20121;-69
2022/05/10 10:29:08;;;;;;;8.10;4.97;;;22.10;62.60;;;;;;5062915;28;20073;-69
2022/05/10 10:31:40;;;;;;;10.57;5.45;;;22.10;62.90;;;;;;5062226;28;20566;-69
2022/05/10 10:34:28;;;;;;;7.70;4.80;;;22.20;62.30;;;;;;5064084;28;20033;-69
2022/05/10 10:37:06;;;;;;;41.28;10.43;;;22.20;63.00;;;;;;5061919;28;20459;-69
2022/05/10 10:40:11;;;;;;;11.82;6.45;;;22.40;63.10;;;;;;5065861;28;20055;-69
2022/05/10 10:42:53;;;;;;;13.00;5.53;;;22.60;64.00;;;;;;5053613;28;20120;-69
2022/05/10 10:45:31;;;;;;;19.85;5.22;;;22.70;64.20;;;;;;5066554;28;20051;-69
2022/05/10 10:48:06;;;;;;;11.13;5.15;;;22.90;63.00;;;;;;5072651;28;20048;-69
2022/05/10 10:50:34;;;;;;;9.10;4.90;;;23.30;59.80;;;;;;5059881;28;20067;-69
2022/05/10 10:53:01;;;;;;;7.18;5.03;;;23.40;61.20;;;;;;5059611;28;20532;-69
2022/05/10 10:55:43;;;;;;;10.18;4.82;;;23.40;62.60;;;;;;5056485;28;20078;-69
2022/05/10 10:58:31;;;;;;;6.65;5.40;;;23.30;60.30;;;;;;5054784;28;20430;-69
2022/05/10 11:01:22;;;;;;;9.75;5.25;;;23.30;61.10;;;;;;5060201;28;20045;-69
2022/05/10 11:04:15;;;;;;;9.32;5.35;;;23.10;60.20;;;;;;5063771;28;20163;-69
2022/05/10 11:06:52;;;;;;;10.98;5.25;;;22.90;60.60;;;;;;5062747;28;20494;-68
2022/05/10 11:09:29;;;;;;;14.45;6.00;;;22.70;60.40;;;;;;5061952;28;20037;-69
2022/05/10 11:12:14;;;;;;;11.70;6.25;;;22.60;61.00;;;;;;5060976;28;20494;-69
2022/05/10 11:15:17;;;;;;;15.15;6.03;;;22.40;61.20;;;;;;5065459;28;20063;-69
2022/05/10 11:18:16;;;;;;;11.20;5.45;;;22.30;62.70;;;;;;5039925;28;20344;-69
2022/05/10 11:21:39;;;;;;;15.98;7.10;;;22.20;64.50;;;;;;5048912;28;20045;-69
2022/05/10 11:24:31;;;;;;;10.38;6.03;;;22.10;62.40;;;;;;5018263;28;20101;-68
2022/05/10 11:27:00;;;;;;;10.95;5.45;;;22.00;63.50;;;;;;5062531;28;20043;-69
2022/05/10 11:29:50;;;;;;;10.68;6.35;;;22.00;63.70;;;;;;5061170;28;20044;-69
2022/05/10 11:32:26;;;;;;;11.60;6.10;;;21.90;65.20;;;;;;5060370;28;20037;-69
2022/05/10 11:35:22;;;;;;;12.65;6.07;;;21.90;64.30;;;;;;5059648;28;20043;-69
2022/05/10 11:38:02;;;;;;;11.70;5.93;;;22.00;65.50;;;;;;5061953;28;20029;-69
2022/05/10 11:40:44;;;;;;;10.75;5.53;;;22.10;65.30;;;;;;5062041;28;20047;-69
2022/05/10 11:43:28;;;;;;;11.75;6.40;;;22.20;65.30;;;;;;5059874;28;20409;-69
2022/05/10 11:46:13;;;;;;;7.72;5.70;;;22.30;66.00;;;;;;5062477;28;20509;-70
2022/05/10 11:49:01;;;;;;;13.75;5.55;;;22.30;65.60;;;;;;5063962;28;20041;-69
2022/05/10 11:52:24;;;;;;;13.73;7.50;;;22.40;65.40;;;;;;5059969;28;20102;-70
2022/05/10 11:54:55;;;;;;;9.95;6.90;;;22.30;66.80;;;;;;4986838;28;20042;-69
2022/05/10 11:57:23;;;;;;;11.65;6.97;;;22.50;66.00;;;;;;5057513;28;20066;-69
2022/05/10 11:59:49;;;;;;;9.77;6.43;;;22.40;64.70;;;;;;5062604;28;20041;-69
2022/05/10 12:02:30;;;;;;;10.32;5.57;;;22.40;65.40;;;;;;5061035;28;20529;-69
2022/05/10 12:05:10;;;;;;;8.00;4.35;;;22.40;64.50;;;;;;5062162;28;20043;-68
2022/05/10 12:07:51;;;;;;;9.88;4.40;;;22.40;63.40;;;;;;5059312;28;20490;-69
2022/05/10 12:10:22;;;;;;;8.65;3.53;;;22.60;62.50;;;;;;5060335;28;20048;-69
2022/05/10 12:12:52;;;;;;;10.82;4.00;;;22.80;61.10;;;;;;5059809;28;20140;-69
2022/05/10 12:21:31;;;;;;;17.42;4.25;;;23.00;60.60;;;;;;5058933;28;20494;-69
2022/05/10 12:24:23;;;;;;;6.93;3.78;;;23.00;59.80;;;;;;5052765;28;20120;-69
2022/05/10 12:26:51;;;;;;;9.10;5.35;;;22.80;57.60;;;;;;5057092;28;20049;-69
2022/05/10 12:29:32;;;;;;;12.82;4.80;;;22.80;58.20;;;;;;5056800;28;20049;-69
2022/05/10 12:32:01;;;;;;;11.20;5.07;;;22.70;58.70;;;;;;5056466;28;20037;-69
2022/05/10 12:34:47;;;;;;;7.38;4.63;;;22.60;59.20;;;;;;5052379;28;20025;-69
2022/05/10 12:37:36;;;;;;;8.38;4.22;;;22.60;59.00;;;;;;5059021;28;20062;-70
2022/05/10 12:40:10;;;;;;;11.50;4.97;;;22.60;61.00;;;;;;5056416;28;20453;-70
2022/05/10 12:42:57;;;;;;;9.80;4.75;;;22.80;60.00;;;;;;5056011;28;20135;-69
2022/05/10 12:45:48;;;;;;;7.00;4.40;;;23.00;60.70;;;;;;5054131;28;20084;-68
2022/05/10 12:48:40;;;;;;;11.73;5.50;;;23.20;61.10;;;;;;5052510;28;20090;-68
2022/05/10 12:51:24;;;;;;;10.00;4.85;;;23.20;60.10;;;;;;5063872;28;20491;-69
2022/05/10 12:53:50;;;;;;;14.93;6.15;;;23.00;60.00;;;;;;5061796;28;20037;-69
2022/05/10 12:56:25;;;;;;;11.75;6.22;;;23.00;60.70;;;;;;5059018;28;20516;-69
2022/05/10 12:58:53;;;;;;;9.90;5.30;;;23.10;63.20;;;;;;5058725;28;20116;-68
2022/05/10 13:01:22;;;;;;;12.52;5.95;;;23.00;63.90;;;;;;5055136;28;20048;-68
2022/05/10 13:04:00;;;;;;;15.60;5.50;;;22.80;61.60;;;;;;5055188;28;20041;-69
2022/05/10 13:06:46;;;;;;;12.13;5.72;;;22.80;63.40;;;;;;5074586;28;20032;-69
2022/05/10 13:09:32;;;;;;;9.73;5.57;;;22.60;62.10;;;;;;5074560;28;20094;-69
2022/05/10 13:12:09;;;;;;;8.48;5.00;;;22.60;62.60;;;;;;5073976;28;20402;-69
2022/05/10 13:14:43;;;;;;;8.88;4.75;;;22.60;64.20;;;;;;5074638;28;20040;-69
2022/05/10 13:17:11;;;;;;;8.88;4.47;;;22.50;64.50;;;;;;5037641;28;20128;-69
2022/05/10 13:19:40;;;;;;;11.68;4.57;;;22.40;64.00;;;;;;5066570;28;20448;-69
2022/05/10 13:22:14;;;;;;;9.50;3.85;;;22.40;64.10;;;;;;5074172;28;20505;-69